sensor_id;sensor_type;location;lat;lon;timestamp;P1;durP1;ratioP1;P2;durP2;ratioP2
61709;SDS011;47633;51.494;5.386;2023-01-01T00:01:54;9.52;;;3.13;;
61709;SDS011;47633;51.494;5.386;2023-01-01T00:04:19;8.00;;;2.95;;
61709;SDS011;47633;51.494;5.386;2023-01-01T00:06:44;7.37;;;2.50;;
61709;SDS011;47633;51.494;5.386;2023-01-01T00:09:10;6.03;;;2.35;;
61709;SDS011;47633;51.494;5.386;2023-01-01T00:11:54;7.80;;;2.72;;
61709;SDS011;47633;51.494;5.386;2023-01-01T00:14:19;5.93;;;2.65;;
61709;SDS011;47633;51.494;5.386;2023-01-01T00:16:45;8.18;;;3.35;;
61709;SDS011;47633;51.494;5.386;2023-01-01T00:19:10;7.28;;;2.90;;
61709;SDS011;47633;51.494;5.386;2023-01-01T00:21:35;7.15;;;3.05;;
61709;SDS011;47633;51.494;5.386;2023-01-01T00:24:01;7.47;;;2.80;;
61709;SDS011;47633;51.494;5.386;2023-01-01T00:26:26;5.85;;;2.42;;
61709;SDS011;47633;51.494;5.386;2023-01-01T00:28:52;9.05;;;2.55;;
61709;SDS011;47633;51.494;5.386;2023-01-01T00:31:18;6.80;;;2.60;;
61709;SDS011;47633;51.494;5.386;2023-01-01T00:33:45;6.15;;;2.65;;
61709;SDS011;47633;51.494;5.386;2023-01-01T00:36:15;7.68;;;3.03;;
61709;SDS011;47633;51.494;5.386;2023-01-01T00:38:41;7.10;;;2.70;;
61709;SDS011;47633;51.494;5.386;2023-01-01T00:41:07;11.07;;;3.05;;
61709;SDS011;47633;51.494;5.386;2023-01-01T00:43:33;5.72;;;2.95;;
61709;SDS011;47633;51.494;5.386;2023-01-01T00:45:58;9.68;;;3.65;;
61709;SDS011;47633;51.494;5.386;2023-01-01T00:48:24;10.60;;;3.03;;
61709;SDS011;47633;51.494;5.386;2023-01-01T00:50:50;6.07;;;2.58;;
61709;SDS011;47633;51.494;5.386;2023-01-01T00:53:16;6.72;;;2.78;;
61709;SDS011;47633;51.494;5.386;2023-01-01T00:55:42;5.97;;;2.33;;
61709;SDS011;47633;51.494;5.386;2023-01-01T00:58:08;7.35;;;2.55;;
61709;SDS011;47633;51.494;5.386;2023-01-01T01:00:35;6.05;;;2.58;;
61709;SDS011;47633;51.494;5.386;2023-01-01T01:03:00;5.93;;;2.90;;
61709;SDS011;47633;51.494;5.386;2023-01-01T01:05:26;6.25;;;2.53;;
61709;SDS011;47633;51.494;5.386;2023-01-01T01:07:51;11.25;;;2.97;;
61709;SDS011;47633;51.494;5.386;2023-01-01T01:10:17;6.90;;;2.40;;
61709;SDS011;47633;51.494;5.386;2023-01-01T01:12:45;8.57;;;2.55;;
61709;SDS011;47633;51.494;5.386;2023-01-01T01:15:11;7.00;;;2.10;;
61709;SDS011;47633;51.494;5.386;2023-01-01T01:17:36;5.22;;;2.50;;
61709;SDS011;47633;51.494;5.386;2023-01-01T01:20:02;7.35;;;2.33;;
61709;SDS011;47633;51.494;5.386;2023-01-01T01:22:28;5.65;;;2.17;;
61709;SDS011;47633;51.494;5.386;2023-01-01T01:24:54;7.75;;;2.63;;
61709;SDS011;47633;51.494;5.386;2023-01-01T01:27:19;6.38;;;2.60;;
61709;SDS011;47633;51.494;5.386;2023-01-01T01:29:45;7.38;;;2.42;;
61709;SDS011;47633;51.494;5.386;2023-01-01T01:32:10;6.65;;;2.45;;
61709;SDS011;47633;51.494;5.386;2023-01-01T01:34:36;7.68;;;2.40;;
61709;SDS011;47633;51.494;5.386;2023-01-01T01:37:01;6.32;;;3.05;;
61709;SDS011;47633;51.494;5.386;2023-01-01T01:39:27;8.27;;;2.30;;
61709;SDS011;47633;51.494;5.386;2023-01-01T01:41:52;7.05;;;2.10;;
61709;SDS011;47633;51.494;5.386;2023-01-01T01:47:48;5.05;;;2.00;;
61709;SDS011;47633;51.494;5.386;2023-01-01T01:50:27;6.47;;;2.15;;
61709;SDS011;47633;51.494;5.386;2023-01-01T01:53:00;6.55;;;2.38;;
61709;SDS011;47633;51.494;5.386;2023-01-01T01:55:27;7.50;;;2.15;;
61709;SDS011;47633;51.494;5.386;2023-01-01T01:57:55;6.90;;;2.40;;
61709;SDS011;47633;51.494;5.386;2023-01-01T02:00:20;7.78;;;2.90;;
61709;SDS011;47633;51.494;5.386;2023-01-01T02:02:50;7.15;;;2.10;;
61709;SDS011;47633;51.494;5.386;2023-01-01T02:07:45;4.05;;;1.98;;
61709;SDS011;47633;51.494;5.386;2023-01-01T02:10:11;5.65;;;2.05;;
61709;SDS011;47633;51.494;5.386;2023-01-01T02:12:36;5.15;;;2.30;;
61709;SDS011;47633;51.494;5.386;2023-01-01T02:15:02;5.78;;;2.15;;
61709;SDS011;47633;51.494;5.386;2023-01-01T02:20:28;6.72;;;2.10;;
61709;SDS011;47633;51.494;5.386;2023-01-01T02:26:08;6.85;;;2.33;;
61709;SDS011;47633;51.494;5.386;2023-01-01T02:28:44;5.32;;;1.88;;
61709;SDS011;47633;51.494;5.386;2023-01-01T02:31:13;6.90;;;1.92;;
61709;SDS011;47633;51.494;5.386;2023-01-01T02:33:43;8.07;;;2.03;;
61709;SDS011;47633;51.494;5.386;2023-01-01T02:36:09;4.90;;;1.92;;
61709;SDS011;47633;51.494;5.386;2023-01-01T02:38:44;5.05;;;1.60;;
61709;SDS011;47633;51.494;5.386;2023-01-01T02:41:15;6.10;;;2.00;;
61709;SDS011;47633;51.494;5.386;2023-01-01T02:43:47;5.72;;;2.55;;
61709;SDS011;47633;51.494;5.386;2023-01-01T02:46:12;6.45;;;1.85;;
61709;SDS011;47633;51.494;5.386;2023-01-01T02:51:37;4.03;;;1.60;;
61709;SDS011;47633;51.494;5.386;2023-01-01T02:56:43;6.88;;;2.15;;
61709;SDS011;47633;51.494;5.386;2023-01-01T02:59:31;4.57;;;1.70;;
61709;SDS011;47633;51.494;5.386;2023-01-01T03:10:46;2.88;;;1.45;;
61709;SDS011;47633;51.494;5.386;2023-01-01T03:13:19;5.15;;;1.80;;
61709;SDS011;47633;51.494;5.386;2023-01-01T03:15:58;7.88;;;1.90;;
61709;SDS011;47633;51.494;5.386;2023-01-01T03:21:48;6.60;;;1.95;;
61709;SDS011;47633;51.494;5.386;2023-01-01T03:24:26;4.70;;;1.63;;
61709;SDS011;47633;51.494;5.386;2023-01-01T03:26:57;6.13;;;1.85;;
61709;SDS011;47633;51.494;5.386;2023-01-01T03:29:26;4.63;;;1.58;;
61709;SDS011;47633;51.494;5.386;2023-01-01T03:31:56;6.05;;;1.60;;
61709;SDS011;47633;51.494;5.386;2023-01-01T03:34:28;4.53;;;1.50;;
61709;SDS011;47633;51.494;5.386;2023-01-01T03:36:58;5.40;;;1.80;;
61709;SDS011;47633;51.494;5.386;2023-01-01T03:39:29;4.78;;;1.80;;
61709;SDS011;47633;51.494;5.386;2023-01-01T03:42:05;8.10;;;1.92;;
61709;SDS011;47633;51.494;5.386;2023-01-01T03:44:46;6.38;;;1.83;;
61709;SDS011;47633;51.494;5.386;2023-01-01T03:47:16;6.97;;;1.70;;
61709;SDS011;47633;51.494;5.386;2023-01-01T03:49:42;5.30;;;1.52;;
61709;SDS011;47633;51.494;5.386;2023-01-01T03:54:44;5.68;;;1.77;;
61709;SDS011;47633;51.494;5.386;2023-01-01T04:00:10;4.47;;;1.33;;
61709;SDS011;47633;51.494;5.386;2023-01-01T04:03:01;5.88;;;1.98;;
61709;SDS011;47633;51.494;5.386;2023-01-01T04:05:28;7.45;;;3.33;;
61709;SDS011;47633;51.494;5.386;2023-01-01T04:07:56;4.85;;;1.60;;
61709;SDS011;47633;51.494;5.386;2023-01-01T04:10:26;3.58;;;1.30;;
61709;SDS011;47633;51.494;5.386;2023-01-01T04:12:55;4.82;;;1.60;;
61709;SDS011;47633;51.494;5.386;2023-01-01T04:15:23;4.00;;;1.55;;
61709;SDS011;47633;51.494;5.386;2023-01-01T04:17:50;4.97;;;1.60;;
61709;SDS011;47633;51.494;5.386;2023-01-01T04:20:16;7.13;;;1.50;;
61709;SDS011;47633;51.494;5.386;2023-01-01T04:22:42;5.40;;;1.98;;
61709;SDS011;47633;51.494;5.386;2023-01-01T04:25:08;4.50;;;1.42;;
61709;SDS011;47633;51.494;5.386;2023-01-01T04:27:34;6.00;;;1.83;;
61709;SDS011;47633;51.494;5.386;2023-01-01T04:30:00;5.25;;;1.73;;
61709;SDS011;47633;51.494;5.386;2023-01-01T04:32:25;5.00;;;1.63;;
61709;SDS011;47633;51.494;5.386;2023-01-01T04:34:50;4.30;;;1.60;;
61709;SDS011;47633;51.494;5.386;2023-01-01T04:37:16;4.53;;;1.75;;
61709;SDS011;47633;51.494;5.386;2023-01-01T04:39:41;4.47;;;1.73;;
61709;SDS011;47633;51.494;5.386;2023-01-01T04:42:07;4.80;;;1.70;;
61709;SDS011;47633;51.494;5.386;2023-01-01T04:44:32;4.97;;;1.80;;
61709;SDS011;47633;51.494;5.386;2023-01-01T04:46:57;4.95;;;1.75;;
61709;SDS011;47633;51.494;5.386;2023-01-01T04:49:22;4.83;;;1.70;;
61709;SDS011;47633;51.494;5.386;2023-01-01T04:51:48;5.57;;;1.75;;
61709;SDS011;47633;51.494;5.386;2023-01-01T04:54:13;5.03;;;1.60;;
61709;SDS011;47633;51.494;5.386;2023-01-01T04:56:38;6.40;;;1.70;;
61709;SDS011;47633;51.494;5.386;2023-01-01T04:59:04;4.75;;;1.50;;
61709;SDS011;47633;51.494;5.386;2023-01-01T05:01:29;5.83;;;1.90;;
61709;SDS011;47633;51.494;5.386;2023-01-01T05:03:55;5.25;;;1.70;;
61709;SDS011;47633;51.494;5.386;2023-01-01T05:06:21;4.85;;;1.50;;
61709;SDS011;47633;51.494;5.386;2023-01-01T05:08:48;5.82;;;1.42;;
61709;SDS011;47633;51.494;5.386;2023-01-01T05:13:42;4.80;;;1.63;;
61709;SDS011;47633;51.494;5.386;2023-01-01T05:16:11;4.30;;;1.30;;
61709;SDS011;47633;51.494;5.386;2023-01-01T05:18:38;5.13;;;2.33;;
61709;SDS011;47633;51.494;5.386;2023-01-01T05:21:08;5.45;;;1.58;;
61709;SDS011;47633;51.494;5.386;2023-01-01T05:23:35;5.25;;;1.48;;
61709;SDS011;47633;51.494;5.386;2023-01-01T05:28:54;4.93;;;1.58;;
61709;SDS011;47633;51.494;5.386;2023-01-01T05:31:22;3.75;;;1.27;;
61709;SDS011;47633;51.494;5.386;2023-01-01T05:33:48;3.25;;;1.30;;
61709;SDS011;47633;51.494;5.386;2023-01-01T05:36:16;3.85;;;1.30;;
61709;SDS011;47633;51.494;5.386;2023-01-01T05:38:45;3.78;;;1.20;;
61709;SDS011;47633;51.494;5.386;2023-01-01T05:41:11;6.82;;;1.80;;
61709;SDS011;47633;51.494;5.386;2023-01-01T05:43:38;3.65;;;1.38;;
61709;SDS011;47633;51.494;5.386;2023-01-01T05:46:05;4.50;;;1.48;;
61709;SDS011;47633;51.494;5.386;2023-01-01T05:48:34;4.38;;;1.80;;
61709;SDS011;47633;51.494;5.386;2023-01-01T05:51:06;5.15;;;1.48;;
61709;SDS011;47633;51.494;5.386;2023-01-01T05:53:34;5.05;;;1.70;;
61709;SDS011;47633;51.494;5.386;2023-01-01T05:55:59;3.58;;;1.20;;
61709;SDS011;47633;51.494;5.386;2023-01-01T05:58:25;3.45;;;1.30;;
61709;SDS011;47633;51.494;5.386;2023-01-01T06:00:51;4.93;;;1.58;;
61709;SDS011;47633;51.494;5.386;2023-01-01T06:03:17;6.57;;;1.52;;
61709;SDS011;47633;51.494;5.386;2023-01-01T06:05:42;5.05;;;1.92;;
61709;SDS011;47633;51.494;5.386;2023-01-01T06:08:08;4.25;;;1.38;;
61709;SDS011;47633;51.494;5.386;2023-01-01T06:10:33;4.65;;;1.60;;
61709;SDS011;47633;51.494;5.386;2023-01-01T06:12:58;3.78;;;1.40;;
61709;SDS011;47633;51.494;5.386;2023-01-01T06:15:24;5.40;;;1.80;;
61709;SDS011;47633;51.494;5.386;2023-01-01T06:17:50;5.50;;;1.40;;
61709;SDS011;47633;51.494;5.386;2023-01-01T06:20:15;4.43;;;1.40;;
61709;SDS011;47633;51.494;5.386;2023-01-01T06:22:41;4.47;;;1.65;;
61709;SDS011;47633;51.494;5.386;2023-01-01T06:25:06;3.72;;;1.30;;
61709;SDS011;47633;51.494;5.386;2023-01-01T06:27:33;4.63;;;1.50;;
61709;SDS011;47633;51.494;5.386;2023-01-01T06:29:59;4.55;;;1.45;;
61709;SDS011;47633;51.494;5.386;2023-01-01T06:32:25;4.32;;;1.38;;
61709;SDS011;47633;51.494;5.386;2023-01-01T06:34:50;4.50;;;1.63;;
61709;SDS011;47633;51.494;5.386;2023-01-01T06:37:15;6.27;;;1.70;;
61709;SDS011;47633;51.494;5.386;2023-01-01T06:39:40;4.35;;;1.30;;
61709;SDS011;47633;51.494;5.386;2023-01-01T06:42:06;4.87;;;1.43;;
61709;SDS011;47633;51.494;5.386;2023-01-01T06:44:31;3.25;;;1.30;;
61709;SDS011;47633;51.494;5.386;2023-01-01T06:46:56;4.35;;;1.42;;
61709;SDS011;47633;51.494;5.386;2023-01-01T06:49:21;3.37;;;1.40;;
61709;SDS011;47633;51.494;5.386;2023-01-01T06:51:47;4.67;;;1.20;;
61709;SDS011;47633;51.494;5.386;2023-01-01T06:54:12;4.93;;;1.50;;
61709;SDS011;47633;51.494;5.386;2023-01-01T06:56:37;3.65;;;1.23;;
61709;SDS011;47633;51.494;5.386;2023-01-01T06:59:03;4.55;;;1.60;;
61709;SDS011;47633;51.494;5.386;2023-01-01T07:01:30;5.03;;;1.35;;
61709;SDS011;47633;51.494;5.386;2023-01-01T07:03:58;3.83;;;1.40;;
61709;SDS011;47633;51.494;5.386;2023-01-01T07:06:25;4.85;;;1.40;;
61709;SDS011;47633;51.494;5.386;2023-01-01T07:08:51;6.28;;;1.52;;
61709;SDS011;47633;51.494;5.386;2023-01-01T07:11:17;4.95;;;1.58;;
61709;SDS011;47633;51.494;5.386;2023-01-01T07:13:42;4.47;;;1.27;;
61709;SDS011;47633;51.494;5.386;2023-01-01T07:16:07;4.25;;;1.50;;
61709;SDS011;47633;51.494;5.386;2023-01-01T07:18:33;5.85;;;1.48;;
61709;SDS011;47633;51.494;5.386;2023-01-01T07:20:59;3.45;;;1.27;;
61709;SDS011;47633;51.494;5.386;2023-01-01T07:23:26;3.88;;;1.10;;
61709;SDS011;47633;51.494;5.386;2023-01-01T07:25:53;4.68;;;1.40;;
61709;SDS011;47633;51.494;5.386;2023-01-01T07:28:20;4.30;;;1.35;;
61709;SDS011;47633;51.494;5.386;2023-01-01T07:30:46;4.03;;;1.40;;
61709;SDS011;47633;51.494;5.386;2023-01-01T07:33:14;3.97;;;1.35;;
61709;SDS011;47633;51.494;5.386;2023-01-01T07:35:41;3.22;;;1.20;;
61709;SDS011;47633;51.494;5.386;2023-01-01T07:38:06;3.67;;;1.10;;
61709;SDS011;47633;51.494;5.386;2023-01-01T07:40:32;3.33;;;1.15;;
61709;SDS011;47633;51.494;5.386;2023-01-01T07:42:57;4.63;;;2.03;;
61709;SDS011;47633;51.494;5.386;2023-01-01T07:45:23;3.63;;;1.20;;
61709;SDS011;47633;51.494;5.386;2023-01-01T07:47:49;4.63;;;1.30;;
61709;SDS011;47633;51.494;5.386;2023-01-01T07:50:17;3.03;;;1.15;;
61709;SDS011;47633;51.494;5.386;2023-01-01T07:52:42;4.30;;;1.38;;
61709;SDS011;47633;51.494;5.386;2023-01-01T07:55:14;3.83;;;1.10;;
61709;SDS011;47633;51.494;5.386;2023-01-01T07:57:42;4.53;;;1.27;;
61709;SDS011;47633;51.494;5.386;2023-01-01T08:00:08;4.50;;;1.25;;
61709;SDS011;47633;51.494;5.386;2023-01-01T08:02:35;3.90;;;1.23;;
61709;SDS011;47633;51.494;5.386;2023-01-01T08:05:01;3.45;;;1.20;;
61709;SDS011;47633;51.494;5.386;2023-01-01T08:07:26;2.95;;;1.10;;
61709;SDS011;47633;51.494;5.386;2023-01-01T08:09:52;3.28;;;1.17;;
61709;SDS011;47633;51.494;5.386;2023-01-01T08:12:17;3.20;;;1.20;;
61709;SDS011;47633;51.494;5.386;2023-01-01T08:14:42;5.25;;;1.25;;
61709;SDS011;47633;51.494;5.386;2023-01-01T08:17:07;3.97;;;1.10;;
61709;SDS011;47633;51.494;5.386;2023-01-01T08:19:33;4.72;;;1.33;;
61709;SDS011;47633;51.494;5.386;2023-01-01T08:21:58;4.53;;;1.30;;
61709;SDS011;47633;51.494;5.386;2023-01-01T08:24:23;2.88;;;1.23;;
61709;SDS011;47633;51.494;5.386;2023-01-01T08:26:49;4.22;;;1.30;;
61709;SDS011;47633;51.494;5.386;2023-01-01T08:29:14;3.97;;;1.05;;
61709;SDS011;47633;51.494;5.386;2023-01-01T08:31:40;4.22;;;1.20;;
61709;SDS011;47633;51.494;5.386;2023-01-01T08:34:05;5.85;;;1.15;;
61709;SDS011;47633;51.494;5.386;2023-01-01T08:36:31;5.07;;;1.35;;
61709;SDS011;47633;51.494;5.386;2023-01-01T08:38:56;4.95;;;1.10;;
61709;SDS011;47633;51.494;5.386;2023-01-01T08:41:21;3.45;;;1.20;;
61709;SDS011;47633;51.494;5.386;2023-01-01T08:43:47;4.50;;;1.20;;
61709;SDS011;47633;51.494;5.386;2023-01-01T08:46:12;6.25;;;2.00;;
61709;SDS011;47633;51.494;5.386;2023-01-01T08:48:37;6.15;;;1.55;;
61709;SDS011;47633;51.494;5.386;2023-01-01T08:51:03;4.35;;;1.10;;
61709;SDS011;47633;51.494;5.386;2023-01-01T08:53:29;6.72;;;1.20;;
61709;SDS011;47633;51.494;5.386;2023-01-01T08:55:56;5.28;;;1.60;;
61709;SDS011;47633;51.494;5.386;2023-01-01T08:58:22;6.22;;;1.10;;
61709;SDS011;47633;51.494;5.386;2023-01-01T09:00:47;4.82;;;1.13;;
61709;SDS011;47633;51.494;5.386;2023-01-01T09:03:12;5.90;;;1.43;;
61709;SDS011;47633;51.494;5.386;2023-01-01T09:05:38;3.30;;;1.23;;
61709;SDS011;47633;51.494;5.386;2023-01-01T09:08:03;5.78;;;1.20;;
61709;SDS011;47633;51.494;5.386;2023-01-01T09:10:29;8.93;;;1.52;;
61709;SDS011;47633;51.494;5.386;2023-01-01T09:12:54;4.15;;;1.25;;
61709;SDS011;47633;51.494;5.386;2023-01-01T09:15:19;4.07;;;1.10;;
61709;SDS011;47633;51.494;5.386;2023-01-01T09:17:45;4.40;;;1.30;;
61709;SDS011;47633;51.494;5.386;2023-01-01T09:20:10;4.70;;;1.27;;
61709;SDS011;47633;51.494;5.386;2023-01-01T09:22:35;3.63;;;1.00;;
61709;SDS011;47633;51.494;5.386;2023-01-01T09:25:01;5.57;;;1.10;;
61709;SDS011;47633;51.494;5.386;2023-01-01T09:27:26;6.32;;;1.48;;
61709;SDS011;47633;51.494;5.386;2023-01-01T09:29:51;6.38;;;1.40;;
61709;SDS011;47633;51.494;5.386;2023-01-01T09:32:16;3.50;;;1.40;;
61709;SDS011;47633;51.494;5.386;2023-01-01T09:34:42;3.83;;;1.30;;
61709;SDS011;47633;51.494;5.386;2023-01-01T09:37:08;7.50;;;1.30;;
61709;SDS011;47633;51.494;5.386;2023-01-01T09:39:33;3.38;;;1.08;;
61709;SDS011;47633;51.494;5.386;2023-01-01T09:42:04;6.10;;;1.23;;
61709;SDS011;47633;51.494;5.386;2023-01-01T09:44:47;4.05;;;1.10;;
61709;SDS011;47633;51.494;5.386;2023-01-01T09:47:23;5.88;;;1.25;;
61709;SDS011;47633;51.494;5.386;2023-01-01T09:49:49;3.35;;;1.10;;
61709;SDS011;47633;51.494;5.386;2023-01-01T09:52:18;2.20;;;1.00;;
61709;SDS011;47633;51.494;5.386;2023-01-01T09:54:57;5.57;;;1.40;;
61709;SDS011;47633;51.494;5.386;2023-01-01T09:57:27;2.65;;;1.02;;
61709;SDS011;47633;51.494;5.386;2023-01-01T09:59:55;3.85;;;1.20;;
61709;SDS011;47633;51.494;5.386;2023-01-01T10:02:31;4.20;;;1.10;;
61709;SDS011;47633;51.494;5.386;2023-01-01T10:05:29;5.75;;;1.10;;
61709;SDS011;47633;51.494;5.386;2023-01-01T10:08:08;4.10;;;1.10;;
61709;SDS011;47633;51.494;5.386;2023-01-01T10:10:59;4.22;;;1.23;;
61709;SDS011;47633;51.494;5.386;2023-01-01T10:13:36;5.25;;;1.15;;
61709;SDS011;47633;51.494;5.386;2023-01-01T10:16:23;5.30;;;1.38;;
61709;SDS011;47633;51.494;5.386;2023-01-01T10:18:56;4.80;;;1.20;;
61709;SDS011;47633;51.494;5.386;2023-01-01T10:21:29;2.75;;;1.33;;
61709;SDS011;47633;51.494;5.386;2023-01-01T10:23:59;2.47;;;1.10;;
61709;SDS011;47633;51.494;5.386;2023-01-01T10:26:28;8.07;;;1.25;;
61709;SDS011;47633;51.494;5.386;2023-01-01T10:31:28;6.68;;;1.30;;
61709;SDS011;47633;51.494;5.386;2023-01-01T10:33:57;3.33;;;1.13;;
61709;SDS011;47633;51.494;5.386;2023-01-01T10:36:22;5.05;;;1.38;;
61709;SDS011;47633;51.494;5.386;2023-01-01T10:38:49;4.90;;;1.27;;
61709;SDS011;47633;51.494;5.386;2023-01-01T10:41:15;5.68;;;1.48;;
61709;SDS011;47633;51.494;5.386;2023-01-01T10:43:41;5.22;;;1.45;;
61709;SDS011;47633;51.494;5.386;2023-01-01T10:46:09;6.20;;;1.60;;
61709;SDS011;47633;51.494;5.386;2023-01-01T10:48:37;3.35;;;1.25;;
61709;SDS011;47633;51.494;5.386;2023-01-01T10:51:06;4.72;;;1.50;;
61709;SDS011;47633;51.494;5.386;2023-01-01T10:53:40;5.95;;;1.48;;
61709;SDS011;47633;51.494;5.386;2023-01-01T10:56:13;3.63;;;1.02;;
61709;SDS011;47633;51.494;5.386;2023-01-01T11:03:51;5.10;;;1.30;;
61709;SDS011;47633;51.494;5.386;2023-01-01T11:06:42;7.65;;;1.55;;
61709;SDS011;47633;51.494;5.386;2023-01-01T11:11:46;5.57;;;1.50;;
61709;SDS011;47633;51.494;5.386;2023-01-01T11:14:19;3.55;;;1.30;;
61709;SDS011;47633;51.494;5.386;2023-01-01T11:16:49;7.43;;;1.55;;
61709;SDS011;47633;51.494;5.386;2023-01-01T11:19:19;6.03;;;1.40;;
61709;SDS011;47633;51.494;5.386;2023-01-01T11:21:49;11.48;;;1.60;;
61709;SDS011;47633;51.494;5.386;2023-01-01T11:24:22;3.95;;;1.20;;
61709;SDS011;47633;51.494;5.386;2023-01-01T11:26:49;9.70;;;1.50;;
61709;SDS011;47633;51.494;5.386;2023-01-01T11:31:41;3.78;;;1.50;;
61709;SDS011;47633;51.494;5.386;2023-01-01T11:34:21;4.82;;;1.33;;
61709;SDS011;47633;51.494;5.386;2023-01-01T11:36:52;4.03;;;1.27;;
61709;SDS011;47633;51.494;5.386;2023-01-01T11:39:31;5.13;;;1.70;;
61709;SDS011;47633;51.494;5.386;2023-01-01T11:42:01;4.63;;;1.40;;
61709;SDS011;47633;51.494;5.386;2023-01-01T11:44:31;4.78;;;1.83;;
61709;SDS011;47633;51.494;5.386;2023-01-01T11:47:00;4.88;;;1.30;;
61709;SDS011;47633;51.494;5.386;2023-01-01T11:49:27;6.25;;;1.63;;
61709;SDS011;47633;51.494;5.386;2023-01-01T11:51:54;6.22;;;1.38;;
61709;SDS011;47633;51.494;5.386;2023-01-01T11:54:29;7.32;;;1.70;;
61709;SDS011;47633;51.494;5.386;2023-01-01T11:57:11;6.20;;;1.60;;
61709;SDS011;47633;51.494;5.386;2023-01-01T11:59:46;4.55;;;1.58;;
61709;SDS011;47633;51.494;5.386;2023-01-01T12:02:16;6.90;;;1.77;;
61709;SDS011;47633;51.494;5.386;2023-01-01T12:04:56;4.47;;;1.55;;
61709;SDS011;47633;51.494;5.386;2023-01-01T12:07:33;4.63;;;1.50;;
61709;SDS011;47633;51.494;5.386;2023-01-01T12:10:21;6.55;;;1.77;;
61709;SDS011;47633;51.494;5.386;2023-01-01T12:12:52;7.85;;;1.85;;
61709;SDS011;47633;51.494;5.386;2023-01-01T12:15:24;7.32;;;1.75;;
61709;SDS011;47633;51.494;5.386;2023-01-01T12:20:43;6.80;;;1.60;;
61709;SDS011;47633;51.494;5.386;2023-01-01T12:23:14;7.40;;;1.90;;
61709;SDS011;47633;51.494;5.386;2023-01-01T12:25:43;4.82;;;1.42;;
61709;SDS011;47633;51.494;5.386;2023-01-01T12:33:36;7.65;;;1.70;;
61709;SDS011;47633;51.494;5.386;2023-01-01T12:36:32;7.38;;;1.98;;
61709;SDS011;47633;51.494;5.386;2023-01-01T12:42:26;10.93;;;3.03;;
61709;SDS011;47633;51.494;5.386;2023-01-01T12:47:48;11.02;;;2.83;;
61709;SDS011;47633;51.494;5.386;2023-01-01T12:53:13;8.40;;;2.15;;
61709;SDS011;47633;51.494;5.386;2023-01-01T12:58:47;11.15;;;2.70;;
61709;SDS011;47633;51.494;5.386;2023-01-01T13:01:20;8.63;;;2.65;;
61709;SDS011;47633;51.494;5.386;2023-01-01T13:03:55;7.95;;;2.30;;
61709;SDS011;47633;51.494;5.386;2023-01-01T13:09:15;9.73;;;2.47;;
61709;SDS011;47633;51.494;5.386;2023-01-01T13:11:44;7.50;;;2.58;;
61709;SDS011;47633;51.494;5.386;2023-01-01T13:14:14;7.75;;;2.60;;
61709;SDS011;47633;51.494;5.386;2023-01-01T13:16:40;7.05;;;2.53;;
61709;SDS011;47633;51.494;5.386;2023-01-01T13:19:22;10.57;;;2.60;;
61709;SDS011;47633;51.494;5.386;2023-01-01T13:21:49;11.30;;;2.70;;
61709;SDS011;47633;51.494;5.386;2023-01-01T13:24:21;8.90;;;2.30;;
61709;SDS011;47633;51.494;5.386;2023-01-01T13:26:49;9.05;;;2.25;;
61709;SDS011;47633;51.494;5.386;2023-01-01T13:45:33;10.10;;;2.00;;
61709;SDS011;47633;51.494;5.386;2023-01-01T13:53:07;7.65;;;2.05;;
61709;SDS011;47633;51.494;5.386;2023-01-01T13:55:55;6.80;;;2.58;;
61709;SDS011;47633;51.494;5.386;2023-01-01T14:03:48;8.23;;;2.20;;
61709;SDS011;47633;51.494;5.386;2023-01-01T14:06:36;7.05;;;1.90;;
61709;SDS011;47633;51.494;5.386;2023-01-01T14:09:08;9.77;;;1.90;;
61709;SDS011;47633;51.494;5.386;2023-01-01T14:11:37;8.45;;;2.17;;
61709;SDS011;47633;51.494;5.386;2023-01-01T14:14:02;6.70;;;1.83;;
61709;SDS011;47633;51.494;5.386;2023-01-01T14:16:41;11.02;;;2.22;;
61709;SDS011;47633;51.494;5.386;2023-01-01T14:19:07;7.47;;;2.50;;
61709;SDS011;47633;51.494;5.386;2023-01-01T14:21:34;11.05;;;2.72;;
61709;SDS011;47633;51.494;5.386;2023-01-01T14:24:03;9.48;;;2.42;;
61709;SDS011;47633;51.494;5.386;2023-01-01T14:26:31;8.02;;;2.42;;
61709;SDS011;47633;51.494;5.386;2023-01-01T14:28:58;9.10;;;2.40;;
61709;SDS011;47633;51.494;5.386;2023-01-01T14:31:32;9.70;;;2.28;;
61709;SDS011;47633;51.494;5.386;2023-01-01T14:33:59;7.05;;;2.20;;
61709;SDS011;47633;51.494;5.386;2023-01-01T14:36:29;11.43;;;2.78;;
61709;SDS011;47633;51.494;5.386;2023-01-01T14:38:57;8.90;;;2.72;;
61709;SDS011;47633;51.494;5.386;2023-01-01T14:44:05;15.45;;;3.10;;
61709;SDS011;47633;51.494;5.386;2023-01-01T14:46:38;7.80;;;2.25;;
61709;SDS011;47633;51.494;5.386;2023-01-01T14:49:07;8.32;;;1.92;;
61709;SDS011;47633;51.494;5.386;2023-01-01T14:51:34;9.15;;;2.50;;
61709;SDS011;47633;51.494;5.386;2023-01-01T14:54:01;9.00;;;2.10;;
61709;SDS011;47633;51.494;5.386;2023-01-01T14:56:32;8.38;;;2.85;;
61709;SDS011;47633;51.494;5.386;2023-01-01T14:59:06;12.38;;;2.15;;
61709;SDS011;47633;51.494;5.386;2023-01-01T15:01:37;7.75;;;2.05;;
61709;SDS011;47633;51.494;5.386;2023-01-01T15:04:22;8.57;;;2.10;;
61709;SDS011;47633;51.494;5.386;2023-01-01T15:06:56;9.85;;;2.40;;
61709;SDS011;47633;51.494;5.386;2023-01-01T15:09:23;11.27;;;2.10;;
61709;SDS011;47633;51.494;5.386;2023-01-01T15:11:52;8.00;;;2.30;;
61709;SDS011;47633;51.494;5.386;2023-01-01T15:14:32;12.98;;;1.90;;
61709;SDS011;47633;51.494;5.386;2023-01-01T15:17:05;12.07;;;1.92;;
61709;SDS011;47633;51.494;5.386;2023-01-01T15:19:33;16.95;;;2.60;;
61709;SDS011;47633;51.494;5.386;2023-01-01T15:21:59;8.85;;;1.90;;
61709;SDS011;47633;51.494;5.386;2023-01-01T15:24:25;8.73;;;2.03;;
61709;SDS011;47633;51.494;5.386;2023-01-01T15:26:57;11.77;;;2.33;;
61709;SDS011;47633;51.494;5.386;2023-01-01T15:29:32;8.57;;;2.33;;
61709;SDS011;47633;51.494;5.386;2023-01-01T15:32:05;17.08;;;2.50;;
61709;SDS011;47633;51.494;5.386;2023-01-01T15:34:42;11.70;;;1.73;;
61709;SDS011;47633;51.494;5.386;2023-01-01T15:37:31;10.73;;;2.00;;
61709;SDS011;47633;51.494;5.386;2023-01-01T15:40:47;12.73;;;1.95;;
61709;SDS011;47633;51.494;5.386;2023-01-01T15:45:20;9.82;;;2.00;;
61709;SDS011;47633;51.494;5.386;2023-01-01T15:47:52;9.05;;;2.08;;
61709;SDS011;47633;51.494;5.386;2023-01-01T15:52:50;9.80;;;1.90;;
61709;SDS011;47633;51.494;5.386;2023-01-01T15:55:18;17.77;;;2.35;;
61709;SDS011;47633;51.494;5.386;2023-01-01T15:57:44;8.32;;;2.30;;
61709;SDS011;47633;51.494;5.386;2023-01-01T16:00:21;8.60;;;1.77;;
61709;SDS011;47633;51.494;5.386;2023-01-01T16:02:48;9.23;;;1.98;;
61709;SDS011;47633;51.494;5.386;2023-01-01T16:05:17;19.60;;;2.40;;
61709;SDS011;47633;51.494;5.386;2023-01-01T16:07:47;11.70;;;2.10;;
61709;SDS011;47633;51.494;5.386;2023-01-01T16:10:29;11.73;;;2.30;;
61709;SDS011;47633;51.494;5.386;2023-01-01T16:12:58;9.20;;;2.85;;
61709;SDS011;47633;51.494;5.386;2023-01-01T16:15:24;12.43;;;2.30;;
61709;SDS011;47633;51.494;5.386;2023-01-01T16:17:50;11.45;;;2.20;;
61709;SDS011;47633;51.494;5.386;2023-01-01T16:20:16;8.43;;;2.90;;
61709;SDS011;47633;51.494;5.386;2023-01-01T16:22:43;9.65;;;3.03;;
61709;SDS011;47633;51.494;5.386;2023-01-01T16:25:18;9.93;;;3.00;;
61709;SDS011;47633;51.494;5.386;2023-01-01T16:27:47;16.17;;;3.00;;
61709;SDS011;47633;51.494;5.386;2023-01-01T16:30:13;10.82;;;3.00;;
61709;SDS011;47633;51.494;5.386;2023-01-01T16:32:39;8.13;;;2.90;;
61709;SDS011;47633;51.494;5.386;2023-01-01T16:35:08;9.93;;;2.75;;
61709;SDS011;47633;51.494;5.386;2023-01-01T16:37:36;9.77;;;2.85;;
61709;SDS011;47633;51.494;5.386;2023-01-01T16:40:02;10.75;;;2.70;;
61709;SDS011;47633;51.494;5.386;2023-01-01T16:42:28;11.60;;;2.85;;
61709;SDS011;47633;51.494;5.386;2023-01-01T16:44:53;14.20;;;2.55;;
61709;SDS011;47633;51.494;5.386;2023-01-01T16:47:18;6.97;;;2.70;;